Three Rivers, TX

11:24 AM CDT on May 04, 2015 (GMT -0500)
Beeville | | Change Station
CLOSE
Current Station
Airport
Location: Beeville,
Elevation: 269 ft
Nearby Weather Stations

Elev 269 ft 28.37 °N, 97.80 °W | Updated 9 minutes ago

Overcast
Overcast
81 °F
Feels Like 83 °F
N
17
Wind Variable Wind from ESE
Gusts 23 mph

Today
High -- | Low -- °F
--% Chance of Precip.
Yesterday
High -- | Low -- °F
Precip. -- in
6:49 AM 8:09 PM
Full, 100% visible
Pressure 30.06 in
Visibility 10.0 miles
Clouds Scattered Clouds 2600 ft
Scattered Clouds 3100 ft
Mostly Cloudy 3800 ft
Heat Index 83 °F
Dew Point 66 °F
Humidity 61%
Rainfall 0.00 in
Snow Depth Not available.
UV 5 out of 12
Pollen 7.00 out of 12
Air Quality Not available.
Flu Activity Sporadic
METAR KBEA 041615Z AUTO 12015G20KT 10SM SCT026 SCT031 BKN038 27/19 A3006 RMK AO2 T02700189

More Conditions Fewer Conditions

Pressure 30.06 in
Visibility 10.0 miles
Clouds Scattered Clouds 2600 ft
Scattered Clouds 3100 ft
Mostly Cloudy 3800 ft
Heat Index 83 °F
Dew Point 66 °F
Humidity 61%
Rainfall 0.00 in
Snow Depth Not available.
UV 5 out of 12
Pollen 7.00 out of 12
Air Quality Not available.
Flu Activity Sporadic
METAR KBEA 041615Z AUTO 12015G20KT 10SM SCT026 SCT031 BKN038 27/19 A3006 RMK AO2 T02700189

More Conditions Fewer Conditions

Nepal has a long way to go to dig out and rebuild from a devastating earthquake. We have teamed up with several charities and organizations to make contributing to the relief effort as easy as possible.
How you can help: Portlight Strategies | Red Cross
Nowcast | as of 11:18 am CDT on May 4, 2015

Isolated showers will develop over the brush country late this morning and early afternoon. Through 2 PM CDT...the area affected will mainly be west of a Nell...Premont line. Rainfall will generally be less than a tenth of an inch. However...up to a quarter of an inch is possible from the heavier downpours.

×

10-Day Weather Forecast

Almanac

Astronomy

May. 04, 2015 Rise Set
Actual Time
Civil Twilight
Nautical Twilight
Astronomical Twilight
Moon
Length of Visible Light
Length of Day
Tomorrow will be .
, % of the Moon is Illuminated

Today's Extremes

State Highs State Lows

Community

WunderPhotos

Upload Photos

1,818,645 photos uploaded!

WunderBlogs® & News

Nearby

Air Quality

  Air Quality AQ Index Pollutant
Not available.

Snow Depth

Station Depth Elevation

Earthquake Activity

City Distance Mag. Time & Date
Minimum magnitude displayed is 2.5.

Coastal Water Temperatures

Place Temperature

Stations

Nearby Weather Stations

Station Location Temp. Windchill Dew Point Humidity Wind Precip. Elev Updated Type